Time;durP1;ratioP1;P1;durP2;ratioP2;P2;SDS_P1;SDS_P2;PMS_P1;PMS_P2;Temp;Humidity;BMP_temperature;BMP_pressure;BME280_temperature;BME280_humidity;BME280_pressure;Samples;Min_cycle;Max_cycle;Signal;HPM_P1;HPM_P2
2022/01/23 00:00:37;;;;;;;47.22;28.40;;;;;;;4.94;100.00;103472.66;5075319;28;20040;-71
2022/01/23 00:03:08;;;;;;;47.05;28.52;;;;;;;4.89;100.00;103473.28;5074661;28;20032;-71
2022/01/23 00:05:37;;;;;;;49.67;29.05;;;;;;;4.94;100.00;103480.44;5074801;28;20036;-70
2022/01/23 00:08:04;;;;;;;56.22;30.33;;;;;;;4.91;100.00;103468.19;5075229;28;20033;-71
2022/01/23 00:10:29;;;;;;;53.17;29.98;;;;;;;4.89;100.00;103464.63;5075579;28;20093;-71
2022/01/23 00:13:07;;;;;;;47.58;28.50;;;;;;;4.83;100.00;103460.03;5074617;28;20056;-71
2022/01/23 00:18:17;;;;;;;50.88;28.20;;;;;;;4.86;100.00;103454.06;5075005;28;20047;-70
2022/01/23 00:20:42;;;;;;;47.15;28.20;;;;;;;4.84;100.00;103455.72;5075015;28;20028;-71
2022/01/23 00:23:15;;;;;;;46.88;28.75;;;;;;;4.85;100.00;103452.28;5074590;28;20029;-71
2022/01/23 00:31:08;;;;;;;45.75;28.52;;;;;;;4.85;100.00;103454.88;5074247;28;20051;-71
2022/01/23 00:33:33;;;;;;;47.28;27.88;;;;;;;4.88;100.00;103463.72;5074954;28;20024;-71
2022/01/23 00:35:59;;;;;;;48.05;28.75;;;;;;;4.87;100.00;103446.38;5074554;28;20476;-71
2022/01/23 00:38:24;;;;;;;45.95;28.17;;;;;;;4.86;100.00;103434.22;5074771;28;20044;-71
2022/01/23 00:40:49;;;;;;;47.03;28.27;;;;;;;4.86;100.00;103443.69;5074698;28;20030;-71
2022/01/23 00:43:30;;;;;;;48.50;28.88;;;;;;;4.83;100.00;103452.22;5074618;28;20365;-71
2022/01/23 00:46:09;;;;;;;48.25;29.08;;;;;;;4.88;100.00;103447.25;5074563;28;20029;-71
2022/01/23 00:48:39;;;;;;;45.55;27.95;;;;;;;4.87;100.00;103448.06;5074420;28;20032;-71
2022/01/23 00:51:05;;;;;;;50.53;29.65;;;;;;;4.87;100.00;103438.59;5074421;28;20064;-72
2022/01/23 00:53:30;;;;;;;50.80;29.45;;;;;;;4.82;100.00;103432.28;5074421;28;20036;-71
2022/01/23 00:55:56;;;;;;;45.38;28.83;;;;;;;4.89;100.00;103443.84;5074466;28;20024;-71
2022/01/23 00:58:21;;;;;;;48.15;27.90;;;;;;;4.87;100.00;103446.38;5074528;28;20033;-71
2022/01/23 01:00:47;;;;;;;45.55;28.02;;;;;;;4.88;100.00;103445.56;5076701;28;20499;-71
2022/01/23 01:03:12;;;;;;;48.40;27.23;;;;;;;4.89;100.00;103444.75;5078001;28;20037;-71
2022/01/23 01:05:37;;;;;;;45.50;28.00;;;;;;;4.89;100.00;103443.84;5077865;28;20032;-71
2022/01/23 01:08:05;;;;;;;45.95;27.45;;;;;;;4.92;100.00;103441.41;5078093;28;20173;-71
2022/01/23 01:10:41;;;;;;;43.00;26.95;;;;;;;4.93;100.00;103443.22;5077837;28;20028;-71
2022/01/23 01:13:10;;;;;;;46.20;28.60;;;;;;;4.86;100.00;103431.59;5077904;28;20036;-71
2022/01/23 01:15:55;;;;;;;44.63;27.00;;;;;;;4.83;100.00;103428.00;5077783;28;20032;-71
2022/01/23 01:32:05;;;;;;;44.70;27.02;;;;;;;4.81;100.00;103434.81;5077798;28;20537;-71
2022/01/23 01:34:42;;;;;;;44.50;26.83;;;;;;;4.84;100.00;103442.75;5077383;28;20032;-71
2022/01/23 01:37:10;;;;;;;46.47;27.27;;;;;;;4.90;100.00;103445.63;5077439;28;20431;-71
2022/01/23 01:39:35;;;;;;;45.58;27.08;;;;;;;4.79;100.00;103423.47;5077664;28;20036;-71
2022/01/23 01:42:01;;;;;;;46.40;26.42;;;;;;;4.89;100.00;103449.94;5077487;28;20113;-71
2022/01/23 01:44:27;;;;;;;41.63;26.27;;;;;;;4.90;100.00;103450.81;5077521;28;20043;-71
2022/01/23 01:46:52;;;;;;;48.00;27.63;;;;;;;4.83;100.00;103453.94;5077156;28;20024;-71
2022/01/23 01:49:28;;;;;;;48.65;26.67;;;;;;;4.84;100.00;103442.75;5077224;28;20024;-71
2022/01/23 01:51:55;;;;;;;45.03;26.80;;;;;;;4.88;100.00;103460.22;5077117;28;20036;-71
2022/01/23 01:54:22;;;;;;;48.85;27.80;;;;;;;4.89;100.00;103469.81;5077230;28;20036;-71
2022/01/23 01:59:33;;;;;;;42.38;26.77;;;;;;;4.92;100.00;103459.59;5076993;28;20115;-71
2022/01/23 02:09:53;;;;;;;46.30;26.45;;;;;;;4.81;100.00;103458.16;5076885;28;20048;-71
2022/01/23 02:15:15;;;;;;;46.35;26.27;;;;;;;4.86;100.00;103457.56;5077206;28;20041;-71
2022/01/23 02:17:57;;;;;;;43.53;26.35;;;;;;;4.87;100.00;103455.84;5076683;28;20399;-71
2022/01/23 02:55:28;;;;;;;41.00;24.38;;;;;;;4.79;100.00;103410.47;5075962;28;20048;-72
2022/01/23 02:58:00;;;;;;;43.13;24.70;;;;;;;4.79;100.00;103410.47;5076040;28;20029;-71
2022/01/23 03:00:32;;;;;;;;;;;;;;;4.90;100.00;103417.09;5076388;28;20036;-71
2022/01/23 03:03:04;;;;;;;39.58;24.23;;;;;;;4.77;100.00;103396.53;5075987;28;20323;-71
2022/01/23 03:08:04;;;;;;;42.58;24.63;;;;;;;4.83;100.00;103415.03;5075570;28;20054;-72
2022/01/23 03:10:39;;;;;;;42.50;24.95;;;;;;;4.80;100.00;103417.47;5075905;28;20045;-72
2022/01/23 03:13:38;;;;;;;41.65;24.80;;;;;;;4.81;100.00;103427.91;5075266;28;20117;-72
2022/01/23 03:24:21;;;;;;;43.53;25.15;;;;;;;4.81;100.00;103422.72;5074992;28;20028;-71
2022/01/23 03:27:25;;;;;;;41.83;24.60;;;;;;;4.84;100.00;103428.06;5074955;28;20093;-72
2022/01/23 03:29:57;;;;;;;43.15;24.25;;;;;;;4.78;100.00;103426.84;5074455;28;20045;-72
2022/01/23 03:34:48;;;;;;;43.55;24.10;;;;;;;4.79;100.00;103431.22;5074764;28;20447;-72
2022/01/23 03:37:13;;;;;;;43.72;25.45;;;;;;;4.79;100.00;103426.03;5075323;28;20505;-72
2022/01/23 03:39:39;;;;;;;40.40;24.75;;;;;;;4.77;100.00;103428.56;5075106;28;20107;-72
2022/01/23 03:42:04;;;;;;;40.15;24.58;;;;;;;4.84;100.00;103440.16;5075130;28;20037;-70
2022/01/23 03:44:30;;;;;;;43.30;26.10;;;;;;;4.77;100.00;103430.25;5075466;28;20036;-71
2022/01/23 03:49:33;;;;;;;41.25;23.90;;;;;;;4.74;100.00;103419.72;5074882;28;20040;-71
2022/01/23 03:52:11;;;;;;;43.72;24.92;;;;;;;4.81;100.00;103438.28;5074813;28;20064;-71
2022/01/23 03:54:39;;;;;;;43.22;24.75;;;;;;;4.72;100.00;103431.72;5074676;28;20043;-71
2022/01/23 03:57:06;;;;;;;45.42;25.20;;;;;;;4.76;100.00;103441.44;5075113;28;20391;-71
2022/01/23 03:59:33;;;;;;;41.97;25.25;;;;;;;4.74;100.00;103435.28;5075049;28;20106;-71
2022/01/23 04:01:59;;;;;;;44.42;25.42;;;;;;;4.79;100.00;103446.81;5074488;28;20028;-71
2022/01/23 04:06:59;;;;;;;45.75;25.85;;;;;;;4.76;100.00;103438.84;5075212;28;20044;-71
2022/01/23 04:09:24;;;;;;;48.17;25.90;;;;;;;4.77;100.00;103440.63;5075083;28;20050;-71
2022/01/23 04:11:50;;;;;;;48.58;26.77;;;;;;;4.78;100.00;103445.91;5074764;28;20081;-71
2022/01/23 04:14:18;;;;;;;47.63;26.92;;;;;;;4.82;100.00;103440.06;5074624;28;20101;-71
2022/01/23 04:17:08;;;;;;;43.92;26.02;;;;;;;4.84;100.00;103453.13;5074519;28;20368;-71
2022/01/23 05:00:22;;;;;;;47.80;27.23;;;;;;;4.80;100.00;103459.84;5078252;28;20167;-71
2022/01/23 05:03:27;;;;;;;49.88;28.35;;;;;;;4.80;100.00;103464.16;5077949;28;20119;-71
2022/01/23 05:05:36;;;;;;;49.72;28.27;;;;;;;4.84;100.00;103468.69;5077624;28;20140;-72
2022/01/23 05:08:05;;;;;;;54.17;27.98;;;;;;;4.81;100.00;103455.56;5078074;28;20403;-71
2022/01/23 05:10:30;;;;;;;51.20;28.17;;;;;;;4.84;100.00;103464.41;5078013;28;20032;-71
2022/01/23 05:12:56;;;;;;;52.97;28.75;;;;;;;4.77;100.00;103454.50;5077925;28;20055;-71
2022/01/23 05:15:22;;;;;;;47.80;27.83;;;;;;;4.81;100.00;103455.56;5077782;28;20032;-71
2022/01/23 05:17:48;;;;;;;52.72;29.25;;;;;;;4.82;100.00;103459.94;5078134;28;20024;-71
2022/01/23 05:20:15;;;;;;;50.70;28.23;;;;;;;4.82;100.00;103457.34;5077880;28;20032;-71
2022/01/23 05:22:47;;;;;;;49.15;28.15;;;;;;;4.77;100.00;103446.72;5077876;28;20028;-71
2022/01/23 05:25:26;;;;;;;53.33;29.38;;;;;;;4.78;100.00;103455.38;5077736;28;20112;-71
2022/01/23 05:27:53;;;;;;;51.03;29.05;;;;;;;4.79;100.00;103452.00;5077556;28;20063;-71
2022/01/23 05:30:18;;;;;;;49.90;28.80;;;;;;;4.78;100.00;103470.97;5077744;28;20032;-71
2022/01/23 05:32:44;;;;;;;48.75;28.05;;;;;;;4.72;100.00;103449.88;5077610;28;20021;-71
2022/01/23 05:35:12;;;;;;;51.05;29.35;;;;;;;4.78;100.00;103458.88;5077597;28;20107;-71
2022/01/23 05:37:38;;;;;;;50.65;27.90;;;;;;;4.78;100.00;103458.88;5077542;28;20153;-71
2022/01/23 05:40:05;;;;;;;49.53;28.90;;;;;;;4.77;100.00;103471.75;5077473;28;20058;-71
2022/01/23 05:42:31;;;;;;;53.22;29.20;;;;;;;4.76;100.00;103459.59;5077377;28;20028;-72
2022/01/23 05:44:56;;;;;;;53.30;29.27;;;;;;;4.79;100.00;103446.81;5077288;28;20097;-71
2022/01/23 05:47:22;;;;;;;54.17;27.98;;;;;;;4.77;100.00;103458.78;5076972;28;20424;-71
2022/01/23 05:49:47;;;;;;;50.35;28.20;;;;;;;4.81;100.00;103458.16;5077238;28;20039;-71
2022/01/23 05:52:13;;;;;;;47.08;27.17;;;;;;;4.80;100.00;103464.16;5077139;28;20044;-71
2022/01/23 05:54:38;;;;;;;47.97;27.83;;;;;;;4.83;100.00;103457.44;5077197;28;20035;-71
2022/01/23 05:57:04;;;;;;;49.63;27.95;;;;;;;4.80;100.00;103451.19;5077234;28;20032;-70
2022/01/23 05:59:29;;;;;;;45.03;27.17;;;;;;;4.82;100.00;103449.56;5077189;28;20036;-71
2022/01/23 06:01:55;;;;;;;51.65;28.20;;;;;;;4.82;100.00;103442.66;5076952;28;20029;-71
2022/01/23 06:04:22;;;;;;;48.65;29.20;;;;;;;4.82;100.00;103454.75;5076770;28;20028;-71
2022/01/23 06:06:48;;;;;;;49.00;28.00;;;;;;;4.78;100.00;103445.00;5077074;28;20158;-71
2022/01/23 06:09:13;;;;;;;52.78;29.02;;;;;;;4.84;100.00;103456.63;5077065;28;20046;-71
2022/01/23 06:11:39;;;;;;;53.20;29.05;;;;;;;4.78;100.00;103450.19;5076835;28;20119;-70
2022/01/23 06:14:06;;;;;;;48.70;27.58;;;;;;;4.77;100.00;103458.78;5076710;28;20052;-71
2022/01/23 06:16:32;;;;;;;57.10;29.15;;;;;;;4.72;100.00;103444.69;5076712;28;20048;-72
2022/01/23 06:18:57;;;;;;;54.72;29.27;;;;;;;4.66;100.00;103454.75;5076839;28;20026;-71
2022/01/23 06:21:24;;;;;;;52.22;29.27;;;;;;;4.62;100.00;103443.34;5076654;28;20119;-71
2022/01/23 06:24:00;;;;;;;52.40;29.17;;;;;;;4.69;100.00;103454.91;5076680;28;20028;-71
2022/01/23 06:26:34;;;;;;;53.88;29.48;;;;;;;4.66;100.00;103452.16;5076627;28;20428;-70
2022/01/23 06:29:02;;;;;;;54.75;30.50;;;;;;;4.71;100.00;103456.75;5076429;28;20033;-71
2022/01/23 06:31:27;;;;;;;56.05;30.73;;;;;;;4.65;100.00;103448.69;5076520;28;20032;-71
2022/01/23 06:33:53;;;;;;;54.38;29.58;;;;;;;4.67;100.00;103457.44;5076297;28;20347;-71
2022/01/23 06:36:18;;;;;;;55.08;31.15;;;;;;;4.72;100.00;103455.94;5076519;28;20394;-71
2022/01/23 06:38:43;;;;;;;51.20;29.83;;;;;;;4.74;100.00;103464.72;5076527;28;20048;-73
2022/01/23 06:41:09;;;;;;;53.35;29.65;;;;;;;4.70;100.00;103459.28;5076111;28;20422;-72
2022/01/23 06:43:34;;;;;;;56.25;30.13;;;;;;;4.68;100.00;103466.06;5076252;28;20039;-71
2022/01/23 06:45:59;;;;;;;53.17;29.55;;;;;;;4.67;100.00;103464.31;5076205;28;20097;-71
2022/01/23 06:48:25;;;;;;;53.90;29.83;;;;;;;4.68;100.00;103471.25;5076199;28;20033;-71
2022/01/23 06:50:50;;;;;;;52.67;29.95;;;;;;;4.66;100.00;103465.13;5076087;28;20458;-71
2022/01/23 06:53:16;;;;;;;56.65;29.80;;;;;;;4.66;100.00;103471.22;5075723;28;20056;-70
2022/01/23 06:55:41;;;;;;;52.67;29.35;;;;;;;4.71;100.00;103472.31;5075836;28;20085;-71
2022/01/23 06:58:06;;;;;;;53.38;29.25;;;;;;;4.75;100.00;103473.38;5074964;28;20033;-71
2022/01/23 07:00:33;;;;;;;53.25;29.63;;;;;;;4.75;100.00;103481.16;5076100;28;20508;-71
2022/01/23 07:02:59;;;;;;;51.47;30.52;;;;;;;4.73;100.00;103478.50;5075834;28;20398;-71
2022/01/23 07:05:24;;;;;;;60.13;31.85;;;;;;;4.74;100.00;103487.16;5075798;28;20040;-70
2022/01/23 07:07:50;;;;;;;57.67;31.17;;;;;;;4.66;100.00;103476.41;5075861;28;20166;-71
2022/01/23 07:10:16;;;;;;;54.60;30.42;;;;;;;4.70;100.00;103487.81;5075569;28;20044;-71
2022/01/23 07:12:42;;;;;;;57.50;30.33;;;;;;;4.64;100.00;103480.63;5075343;28;20052;-71
2022/01/23 07:15:08;;;;;;;51.03;28.98;;;;;;;4.73;100.00;103498.34;5075534;28;20036;-71
2022/01/23 07:17:41;;;;;;;56.15;31.42;;;;;;;4.73;100.00;103503.53;5075439;28;20028;-71
2022/01/23 07:20:07;;;;;;;56.75;30.50;;;;;;;4.74;100.00;103502.72;5075842;28;20029;-71
2022/01/23 07:22:32;;;;;;;57.20;31.48;;;;;;;4.75;100.00;103509.69;5075631;28;20028;-69
2022/01/23 07:25:02;;;;;;;59.17;30.58;;;;;;;4.73;100.00;103504.44;5075513;28;20408;-63
2022/01/23 07:27:31;;;;;;;57.45;32.65;;;;;;;4.71;100.00;103506.03;5075421;28;20062;-65
2022/01/23 07:29:57;;;;;;;58.00;30.67;;;;;;;4.70;100.00;103513.75;5075311;28;20048;-67
2022/01/23 07:32:22;;;;;;;59.60;31.50;;;;;;;4.73;100.00;103519.09;5075362;28;20120;-65
2022/01/23 07:34:47;;;;;;;60.03;31.85;;;;;;;4.76;100.00;103527.03;5074866;28;20029;-66
2022/01/23 07:37:14;;;;;;;59.92;30.85;;;;;;;4.69;100.00;103511.94;5075195;28;20041;-69
2022/01/23 07:39:39;;;;;;;54.38;31.58;;;;;;;4.73;100.00;103521.69;5075146;28;20033;-67
2022/01/23 07:42:05;;;;;;;59.60;32.17;;;;;;;4.75;100.00;103522.66;5075096;28;20067;-69
2022/01/23 07:44:31;;;;;;;58.60;31.60;;;;;;;4.75;100.00;103527.84;5075427;28;20040;-70
2022/01/23 07:46:56;;;;;;;52.72;29.38;;;;;;;4.79;100.00;103537.59;5075300;28;20035;-68
2022/01/23 07:49:21;;;;;;;57.65;31.63;;;;;;;4.69;100.00;103519.72;5075052;28;20443;-68
2022/01/23 07:51:47;;;;;;;52.97;30.42;;;;;;;4.74;100.00;103532.16;5074978;28;20032;-69
2022/01/23 07:54:12;;;;;;;57.30;32.53;;;;;;;4.79;100.00;103535.88;5074792;28;20040;-68
2022/01/23 07:56:39;;;;;;;58.53;32.13;;;;;;;4.77;100.00;103537.50;5075093;28;20033;-69
2022/01/23 07:59:04;;;;;;;55.75;31.38;;;;;;;4.80;100.00;103545.47;5074999;28;20293;-68
2022/01/23 08:01:31;;;;;;;56.40;32.05;;;;;;;4.75;100.00;103539.13;5075307;28;20040;-68
2022/01/23 08:03:56;;;;;;;54.83;30.63;;;;;;;4.76;100.00;103537.44;5075089;28;20408;-69
2022/01/23 08:06:28;;;;;;;56.58;30.80;;;;;;;4.78;100.00;103533.22;5074870;28;20040;-68
2022/01/23 08:08:55;;;;;;;56.40;31.88;;;;;;;4.81;100.00;103539.47;5074677;28;20032;-67
2022/01/23 08:11:22;;;;;;;56.60;31.90;;;;;;;4.75;100.00;103533.94;5074912;28;20024;-69
2022/01/23 08:13:47;;;;;;;56.35;31.50;;;;;;;4.75;100.00;103533.03;5074350;28;20084;-68
2022/01/23 08:16:12;;;;;;;56.83;32.13;;;;;;;4.76;100.00;103533.13;5074960;28;20075;-68
2022/01/23 08:18:38;;;;;;;56.50;31.27;;;;;;;4.80;100.00;103541.97;5074711;28;20038;-69
2022/01/23 08:21:03;;;;;;;63.42;32.20;;;;;;;4.77;100.00;103542.69;5079546;28;20038;-69
2022/01/23 08:23:28;;;;;;;55.15;30.73;;;;;;;4.81;100.00;103544.66;5081799;28;20371;-69
2022/01/23 08:25:54;;;;;;;58.28;32.10;;;;;;;4.84;100.00;103549.13;5080389;28;20097;-68
2022/01/23 08:28:19;;;;;;;56.70;30.95;;;;;;;4.83;100.00;103542.13;5087878;28;20443;-67
2022/01/23 08:30:44;;;;;;;57.90;32.03;;;;;;;4.87;100.00;103552.75;5078148;28;20064;-67
2022/01/23 08:33:10;;;;;;;56.60;31.85;;;;;;;4.87;100.00;103550.16;5088702;28;20436;-66
2022/01/23 08:35:35;;;;;;;58.83;32.15;;;;;;;4.91;100.00;103556.41;5077868;28;20038;-67
2022/01/23 08:38:01;;;;;;;57.92;31.83;;;;;;;4.89;100.00;103543.34;5083141;28;20115;-68
2022/01/23 08:43:08;;;;;;;55.72;32.03;;;;;;;4.99;100.00;103567.19;5084416;28;20029;-68
2022/01/23 08:45:33;;;;;;;61.30;33.20;;;;;;;4.96;100.00;103564.44;5083045;28;20036;-68
2022/01/23 08:47:59;;;;;;;59.92;31.38;;;;;;;4.96;100.00;103564.44;5083071;28;20028;-69
2022/01/23 08:50:25;;;;;;;55.00;31.63;;;;;;;4.97;100.00;103574.00;5084244;28;20066;-68
2022/01/23 08:52:51;;;;;;;58.08;31.23;;;;;;;5.02;100.00;103577.75;5084563;28;20408;-68
2022/01/23 08:55:16;;;;;;;57.33;31.92;;;;;;;5.03;100.00;103576.91;5082931;28;20103;-68
2022/01/23 08:57:41;;;;;;;55.67;31.40;;;;;;;5.07;100.00;103578.84;5084533;28;20028;-67
2022/01/23 09:00:07;;;;;;;55.05;31.33;;;;;;;5.05;100.00;103564.91;5092865;28;20036;-67
2022/01/23 09:02:32;;;;;;;62.42;33.00;;;;;;;5.10;100.00;103573.84;5094697;28;20097;-67
2022/01/23 09:05:00;;;;;;;59.45;32.05;;;;;;;5.11;100.00;103565.25;5094433;28;20441;-68
2022/01/23 09:07:25;;;;;;;55.85;31.25;;;;;;;5.13;100.00;103563.63;5094277;28;20032;-67
2022/01/23 09:09:50;;;;;;;53.92;31.17;;;;;;;5.13;100.00;103568.81;5094342;28;20050;-68
2022/01/23 09:14:59;;;;;;;57.10;31.17;;;;;;;5.19;100.00;103564.84;5073962;28;20055;-69
2022/01/23 09:17:25;;;;;;;56.40;31.92;;;;;;;5.24;100.00;103568.53;5073934;28;20028;-67
2022/01/23 09:19:50;;;;;;;56.13;30.88;;;;;;;5.20;100.00;103558.81;5074175;28;20446;-69
2022/01/23 09:22:15;;;;;;;57.65;31.08;;;;;;;5.30;100.00;103560.19;5062521;28;20036;-68
2022/01/23 09:24:41;;;;;;;57.40;32.60;;;;;;;5.35;100.00;103565.63;5057724;28;20420;-69
2022/01/23 09:27:09;;;;;;;54.97;31.85;;;;;;;5.34;100.00;103563.84;5057197;28;20064;-69
2022/01/23 09:29:38;;;;;;;55.92;31.67;;;;;;;5.38;100.00;103565.75;5057328;28;20056;-70
2022/01/23 09:32:09;;;;;;;55.33;31.63;;;;;;;5.42;100.00;103563.41;5057178;28;20082;-68
2022/01/23 09:34:34;;;;;;;57.63;31.85;;;;;;;5.47;100.00;103567.16;5057050;28;20098;-68
2022/01/23 09:37:04;;;;;;;58.67;31.65;;;;;;;5.46;100.00;103559.28;5056782;28;20407;-68
2022/01/23 09:39:30;;;;;;;55.75;32.30;;;;;;;5.46;100.00;103561.88;5057518;28;20040;-70
2022/01/23 09:42:01;;;;;;;55.63;30.65;;;;;;;5.50;100.00;103561.22;5057701;28;20033;-69
2022/01/23 09:44:31;;;;;;;53.95;30.98;;;;;;;5.53;100.00;103576.97;5057421;28;20025;-68
2022/01/23 09:46:57;;;;;;;55.20;31.50;;;;;;;5.58;100.00;103573.75;5057389;28;20032;-68
2022/01/23 09:49:25;;;;;;;58.13;31.88;;;;;;;5.60;100.00;103571.25;5057326;28;20028;-69
2022/01/23 09:51:51;;;;;;;55.15;32.05;;;;;;;5.62;100.00;103574.81;5057324;28;20060;-68
2022/01/23 09:54:16;;;;;;;56.65;31.67;;;;;;;5.59;100.00;103579.84;5057085;28;20024;-68
2022/01/23 09:56:43;;;;;;;54.53;31.33;;;;;;;5.65;100.00;103576.69;5057259;28;20032;-68
2022/01/23 09:59:13;;;;;;;53.10;31.23;;;;;;;5.66;100.00;103581.97;5060591;28;20951;-67
2022/01/23 10:01:43;;;;;;;53.42;31.48;;;;;;;5.63;99.51;103584.41;5072123;28;20039;-71
2022/01/23 10:04:09;;;;;;;58.03;32.30;;;;;;;5.66;99.20;103584.56;5069437;28;20458;-69
2022/01/23 10:06:35;;;;;;;56.08;31.48;;;;;;;5.70;99.10;103586.50;5063629;28;20032;-69
2022/01/23 10:09:05;;;;;;;53.10;30.38;;;;;;;5.77;99.15;103587.69;5066037;28;20033;-70
2022/01/23 10:11:35;;;;;;;53.63;31.92;;;;;;;5.80;99.70;103578.34;5065172;28;20025;-69
2022/01/23 10:14:00;;;;;;;54.45;32.42;;;;;;;5.81;99.36;103569.72;5081134;28;20332;-70
2022/01/23 10:16:26;;;;;;;55.33;30.92;;;;;;;5.88;98.74;103579.66;5086760;28;20043;-69
2022/01/23 10:18:53;;;;;;;55.65;31.05;;;;;;;5.90;98.67;103588.41;5087193;28;20714;-69
2022/01/23 10:21:18;;;;;;;56.30;31.42;;;;;;;5.91;99.25;103578.91;5085319;28;20362;-70
2022/01/23 10:23:44;;;;;;;53.17;31.63;;;;;;;5.94;98.89;103579.94;5083272;28;20027;-69
2022/01/23 10:26:09;;;;;;;54.95;31.70;;;;;;;5.97;98.74;103578.31;5086772;28;20407;-64
2022/01/23 10:28:35;;;;;;;59.13;31.58;;;;;;;6.04;98.89;103577.81;5088072;28;20089;-69
2022/01/23 10:31:04;;;;;;;52.03;30.92;;;;;;;6.07;98.12;103580.53;5099011;28;20040;-69
2022/01/23 10:33:35;;;;;;;52.33;31.33;;;;;;;6.11;97.84;103579.88;5088666;28;20039;-68
2022/01/23 10:36:11;;;;;;;54.03;30.10;;;;;;;6.16;98.08;103575.81;5096654;28;20107;-70
2022/01/23 10:39:01;;;;;;;53.60;31.20;;;;;;;6.18;97.71;103577.66;5087145;28;20036;-70
2022/01/23 10:42:02;;;;;;;52.03;30.92;;;;;;;6.22;97.53;103579.59;5086777;28;20054;-69
2022/01/23 10:47:43;;;;;;;51.13;29.17;;;;;;;6.30;96.92;103582.56;5086073;28;20450;-70
2022/01/23 10:50:09;;;;;;;50.95;29.60;;;;;;;6.28;96.58;103578.97;5086839;28;20040;-68
2022/01/23 10:52:40;;;;;;;51.75;30.13;;;;;;;6.31;96.54;103573.94;5096690;28;20469;-69
2022/01/23 10:55:24;;;;;;;53.00;30.10;;;;;;;6.38;97.27;103578.63;5096302;28;20036;-69
2022/01/23 10:57:54;;;;;;;52.97;28.95;;;;;;;6.36;96.49;103569.84;5096151;28;20031;-70
2022/01/23 11:00:27;;;;;;;52.67;31.75;;;;;;;6.41;96.90;103573.53;5096234;28;20055;-70
2022/01/23 11:02:53;;;;;;;55.70;31.13;;;;;;;6.35;97.17;103570.66;5096188;28;20036;-69
2022/01/23 11:05:19;;;;;;;51.95;31.40;;;;;;;6.42;96.83;103577.94;5096350;28;20035;-69
2022/01/23 11:07:47;;;;;;;52.63;29.50;;;;;;;6.33;95.77;103567.09;5096018;28;20080;-69
2022/01/23 11:10:16;;;;;;;52.63;31.20;;;;;;;6.31;96.18;103568.72;5095945;28;20036;-68
2022/01/23 11:18:15;;;;;;;55.08;30.92;;;;;;;6.46;96.51;103561.66;5090221;28;20132;-69
2022/01/23 11:20:46;;;;;;;51.05;29.50;;;;;;;6.49;95.34;103563.50;5095739;28;20123;-67
2022/01/23 11:23:19;;;;;;;51.28;29.02;;;;;;;6.48;95.64;103557.41;5095701;28;20447;-67
2022/01/23 11:25:56;;;;;;;53.75;30.55;;;;;;;6.51;96.02;103557.56;5095799;28;20059;-69
2022/01/23 11:28:37;;;;;;;53.10;31.17;;;;;;;6.49;95.68;103563.50;5092501;28;20032;-69
2022/01/23 11:31:04;;;;;;;51.58;30.55;;;;;;;6.44;94.84;103560.69;5084531;28;20021;-71
2022/01/23 11:33:29;;;;;;;51.95;30.25;;;;;;;6.45;95.38;103548.56;5092382;28;20035;-71
2022/01/23 11:35:54;;;;;;;50.45;29.55;;;;;;;6.49;94.22;103547.91;5075291;28;20040;-70
2022/01/23 11:38:22;;;;;;;53.00;30.13;;;;;;;6.55;94.18;103550.81;5075270;28;20406;-69
2022/01/23 11:54:47;;;;;;;52.67;30.13;;;;;;;6.58;94.95;103545.75;5075118;28;20046;-70
2022/01/23 11:57:35;;;;;;;51.42;30.45;;;;;;;6.57;94.98;103546.56;5075288;28;20060;-68
2022/01/23 12:00:18;;;;;;;51.50;29.20;;;;;;;6.57;94.48;103546.56;5075242;28;20154;-69
2022/01/23 12:03:17;;;;;;;48.78;29.92;;;;;;;6.60;95.34;103539.75;5074893;28;20116;-69
2022/01/23 12:05:47;;;;;;;51.17;29.27;;;;;;;6.56;94.21;103536.97;5075086;28;20020;-70
2022/01/23 12:08:27;;;;;;;50.03;29.80;;;;;;;6.66;94.90;103535.66;5074784;28;20071;-69
2022/01/23 12:11:34;;;;;;;48.20;28.33;;;;;;;6.71;95.23;103536.78;5075017;28;20427;-64
2022/01/23 12:16:55;;;;;;;45.00;27.92;;;;;;;6.77;94.30;103526.63;5074829;28;20097;-62
2022/01/23 12:19:24;;;;;;;45.38;25.83;;;;;;;6.67;93.06;103522.75;5074567;28;20039;-70
2022/01/23 12:21:53;;;;;;;43.92;26.38;;;;;;;6.70;93.31;103519.38;5088226;28;20336;-70
2022/01/23 12:24:20;;;;;;;42.42;25.55;;;;;;;6.72;92.29;103515.16;5095312;28;20139;-70
2022/01/23 12:26:47;;;;;;;44.13;25.70;;;;;;;6.68;92.71;103503.69;5095310;28;20047;-70
2022/01/23 12:29:23;;;;;;;41.83;24.75;;;;;;;6.71;91.51;103509.06;5095047;28;20039;-69
2022/01/23 12:31:50;;;;;;;43.28;24.85;;;;;;;6.72;92.43;103509.94;5094876;28;20085;-69
2022/01/23 12:34:15;;;;;;;45.42;24.88;;;;;;;6.73;91.78;103511.72;5092112;28;20032;-70
2022/01/23 12:36:40;;;;;;;46.78;26.27;;;;;;;6.76;92.17;103507.53;5074906;28;20094;-65
2022/01/23 12:39:06;;;;;;;40.25;24.58;;;;;;;6.79;90.60;103511.97;5074616;28;20355;-68
2022/01/23 12:41:51;;;;;;;37.80;23.50;;;;;;;6.84;92.55;103497.47;5074621;28;20036;-68
2022/01/23 12:44:22;;;;;;;45.03;25.15;;;;;;;6.77;90.65;103504.09;5063052;28;20105;-69
2022/01/23 12:46:57;;;;;;;41.03;24.85;;;;;;;6.75;91.35;103508.38;5074509;28;20036;-70
2022/01/23 12:49:38;;;;;;;43.03;25.73;;;;;;;6.74;91.10;103504.00;5077326;28;20029;-71
2022/01/23 12:52:06;;;;;;;39.92;25.38;;;;;;;6.76;90.82;103507.53;5074351;28;20047;-70
2022/01/23 12:54:34;;;;;;;39.20;23.65;;;;;;;6.74;90.53;103495.28;5075813;28;20045;-71
2022/01/23 12:57:10;;;;;;;40.92;23.40;;;;;;;6.76;90.54;103498.81;5079831;28;20115;-71
2022/01/23 12:59:37;;;;;;;42.15;23.90;;;;;;;6.75;89.55;103500.56;5080971;28;20032;-69
2022/01/23 13:02:09;;;;;;;40.53;24.48;;;;;;;6.75;89.84;103487.56;5078262;28;20040;-67
2022/01/23 13:04:39;;;;;;;45.78;25.63;;;;;;;6.77;90.64;103479.78;5078451;28;20052;-67
2022/01/23 13:07:13;;;;;;;48.67;27.67;;;;;;;6.81;90.09;103494.72;5089405;28;20099;-67
2022/01/23 13:09:51;;;;;;;42.17;26.15;;;;;;;6.77;89.71;103477.19;5098136;28;20024;-70
2022/01/23 13:15:58;;;;;;;46.97;26.40;;;;;;;6.77;90.37;103485.00;5087435;28;20048;-71
2022/01/23 13:18:42;;;;;;;47.38;26.50;;;;;;;6.79;90.22;103478.16;5073293;28;20048;-70
2022/01/23 13:29:54;;;;;;;41.63;24.45;;;;;;;6.84;89.26;103472.34;5083167;28;20539;-69
2022/01/23 13:32:08;;;;;;;44.80;26.08;;;;;;;6.81;88.78;103474.78;5076768;28;20448;-69
2022/01/23 13:34:36;;;;;;;43.33;25.08;;;;;;;6.86;90.00;103475.00;5077231;28;20028;-69
2022/01/23 13:37:22;;;;;;;43.42;26.02;;;;;;;6.87;90.05;103459.47;5077476;28;20089;-69
2022/01/23 13:39:59;;;;;;;46.67;26.25;;;;;;;6.92;89.83;103468.38;5077556;28;20032;-69
2022/01/23 13:59:49;;;;;;;50.28;28.73;;;;;;;6.93;89.97;103456.22;5082228;28;20051;-70
2022/01/23 14:02:33;;;;;;;45.80;27.35;;;;;;;6.98;90.25;103459.91;5079602;28;20025;-70
2022/01/23 14:05:17;;;;;;;48.40;28.27;;;;;;;6.96;90.01;103453.75;5077074;28;20021;-72
2022/01/23 14:07:48;;;;;;;46.63;27.90;;;;;;;6.93;90.31;103438.88;5076278;28;20432;-70
2022/01/23 14:10:16;;;;;;;50.97;28.38;;;;;;;6.98;90.74;103439.97;5076726;28;20045;-70
2022/01/23 14:12:43;;;;;;;50.72;27.80;;;;;;;6.98;90.25;103439.97;5076888;28;20440;-70
2022/01/23 14:15:13;;;;;;;47.08;28.35;;;;;;;6.94;89.36;103437.16;5077126;28;20067;-70
2022/01/23 14:17:39;;;;;;;51.47;28.95;;;;;;;6.94;89.96;103442.38;5076455;28;20036;-70
2022/01/23 14:20:16;;;;;;;50.40;29.23;;;;;;;6.97;90.34;103451.22;5076641;28;20053;-68
2022/01/23 14:22:47;;;;;;;48.25;28.40;;;;;;;6.97;91.05;103452.94;5076575;28;20029;-69
2022/01/23 14:25:23;;;;;;;48.85;29.38;;;;;;;6.93;91.23;103453.59;5076483;28;20036;-71
2022/01/23 14:28:03;;;;;;;48.58;27.73;;;;;;;6.91;91.31;103456.19;5081829;28;20039;-69
2022/01/23 14:30:29;;;;;;;50.80;29.10;;;;;;;6.86;91.06;103446.38;5090903;28;20028;-67